Time;durP1;ratioP1;P1;durP2;ratioP2;P2;SDS_P1;SDS_P2;PMS_P1;PMS_P2;Temp;Humidity;BMP_temperature;BMP_pressure;BME280_temperature;BME280_humidity;BME280_pressure;Samples;Min_cycle;Max_cycle;Signal;HPM_P1;HPM_P2
2021/03/03 00:00:07;;;;;;;66.23;38.50;;;;;;;-3.05;88.15;94376.14;1807991;79;21372;-82
2021/03/03 00:02:35;;;;;;;48.50;28.90;;;;;;;-3.08;88.05;94374.07;1804369;79;21136;-82
2021/03/03 00:05:04;;;;;;;23.97;14.70;;;;;;;-3.09;88.33;94380.99;1792394;79;21193;-81
2021/03/03 00:07:31;;;;;;;40.77;22.20;;;;;;;-3.06;88.67;94374.56;1819030;78;21159;-81
2021/03/03 00:10:02;;;;;;;41.27;20.67;;;;;;;-3.05;88.70;94376.14;1781827;79;21113;-80
2021/03/03 00:12:30;;;;;;;18.77;11.90;;;;;;;-3.02;88.71;94374.78;1837983;77;22249;-82
2021/03/03 00:14:58;;;;;;;55.07;28.50;;;;;;;-3.01;88.62;94372.37;1846316;77;21173;-82
2021/03/03 00:17:25;;;;;;;53.00;27.77;;;;;;;-2.99;88.60;94368.35;1845239;77;21154;-82
2021/03/03 00:19:53;;;;;;;82.63;42.30;;;;;;;-3.04;88.22;94367.09;1845768;77;21153;-82
2021/03/03 00:22:21;;;;;;;85.37;43.67;;;;;;;-3.13;88.23;94366.67;1846679;77;21386;-82
2021/03/03 00:24:49;;;;;;;76.57;40.47;;;;;;;-3.20;88.41;94369.17;1837874;77;21255;-80
2021/03/03 00:27:16;;;;;;;73.70;37.90;;;;;;;-3.21;88.26;94371.55;1847572;77;21070;-84
2021/03/03 00:29:45;;;;;;;66.43;36.13;;;;;;;-3.23;88.28;94359.09;1844307;77;21185;-80
2021/03/03 00:32:13;;;;;;;40.53;23.50;;;;;;;-3.23;88.18;94359.09;1837159;78;21227;-84
2021/03/03 00:34:41;;;;;;;34.90;18.60;;;;;;;-3.31;88.12;94357.58;1837566;78;21608;-83
2021/03/03 00:37:10;;;;;;;15.40;7.20;;;;;;;-3.35;88.50;94356.58;1851770;77;21355;-79
2021/03/03 00:39:38;;;;;;;10.93;6.20;;;;;;;-3.36;88.82;94358.45;1800367;77;21735;-81
2021/03/03 00:42:06;;;;;;;6.37;4.50;;;;;;;-3.35;89.09;94362.67;1785451;80;21663;-82
2021/03/03 00:44:34;;;;;;;7.77;4.53;;;;;;;-3.35;88.91;94362.67;1786406;80;21066;-81
2021/03/03 00:47:01;;;;;;;6.57;4.03;;;;;;;-3.37;89.10;94361.40;1789035;78;21216;-82
2021/03/03 00:49:29;;;;;;;24.40;13.03;;;;;;;-3.33;89.45;94357.88;1824006;78;21623;-82
2021/03/03 00:51:57;;;;;;;16.70;9.10;;;;;;;-3.28;89.43;94365.78;1819817;78;21074;-81
2021/03/03 00:54:25;;;;;;;58.10;29.17;;;;;;;-3.23;89.23;94366.28;1817553;78;21193;-82
2021/03/03 00:56:53;;;;;;;53.67;28.97;;;;;;;-3.22;88.88;94359.88;1798525;79;21169;-79
2021/03/03 00:59:20;;;;;;;30.77;18.53;;;;;;;-3.23;88.72;94358.30;1776118;80;21201;-84
2021/03/03 01:01:49;;;;;;;21.20;11.57;;;;;;;-3.26;88.29;94358.33;1825365;78;21363;-83
2021/03/03 01:04:17;;;;;;;6.20;4.27;;;;;;;-3.34;87.81;94353.64;1851948;77;21200;-82
2021/03/03 01:06:46;;;;;;;8.87;4.67;;;;;;;-3.47;87.78;94362.30;1839991;77;21055;-82
2021/03/03 01:09:14;;;;;;;18.20;10.53;;;;;;;-3.56;88.15;94355.50;1844822;77;21129;-80
2021/03/03 01:11:44;;;;;;;6.20;4.20;;;;;;;-3.56;88.53;94352.05;1846426;75;21169;-83
2021/03/03 01:14:12;;;;;;;8.87;5.00;;;;;;;-3.52;88.59;94343.76;1815482;77;21359;-83
2021/03/03 01:16:41;;;;;;;7.03;4.03;;;;;;;-3.57;88.53;94349.11;1851556;77;21165;-82
2021/03/03 01:19:11;;;;;;;8.80;4.73;;;;;;;-3.59;88.69;94359.25;1762096;77;21142;-80
2021/03/03 01:21:38;;;;;;;6.67;3.70;;;;;;;-3.66;88.88;94344.42;1794933;80;21658;-82
2021/03/03 01:24:07;;;;;;;11.90;6.37;;;;;;;-3.62;89.38;94351.84;1811776;77;22396;-83
2021/03/03 01:26:35;;;;;;;10.03;7.53;;;;;;;-3.60;88.90;94347.83;1849341;77;22329;-82
2021/03/03 01:29:03;;;;;;;7.50;5.00;;;;;;;-3.64;88.15;94342.83;1853874;77;21166;-80
2021/03/03 01:31:32;;;;;;;11.60;6.83;;;;;;;-3.65;88.11;94347.88;1820719;78;21464;-84
2021/03/03 01:34:00;;;;;;;9.10;5.90;;;;;;;-3.68;88.07;94342.61;1819533;78;21207;-80
2021/03/03 01:36:28;;;;;;;39.97;24.20;;;;;;;-3.68;87.87;94340.48;1822574;77;21135;-83
2021/03/03 01:38:56;;;;;;;18.77;10.57;;;;;;;-3.75;87.95;94343.48;1828533;77;21353;-82
2021/03/03 01:41:23;;;;;;;8.20;4.90;;;;;;;-3.76;88.07;94340.57;1849813;77;21486;-80
2021/03/03 01:43:51;;;;;;;9.10;5.97;;;;;;;-3.75;88.38;94336.05;1821792;78;21660;-79
2021/03/03 01:46:18;;;;;;;52.43;29.07;;;;;;;-3.80;88.46;94338.23;1855534;76;21141;-80
2021/03/03 01:48:46;;;;;;;28.80;16.60;;;;;;;-3.82;88.15;94335.59;1854755;76;21129;-81
2021/03/03 01:51:14;;;;;;;51.73;27.83;;;;;;;-3.88;87.81;94336.16;1853850;76;21373;-82
2021/03/03 01:53:42;;;;;;;32.73;18.00;;;;;;;-3.92;87.77;94329.29;1853545;76;21185;-81
2021/03/03 01:56:11;;;;;;;51.93;28.27;;;;;;;-3.96;87.74;94332.26;1854274;77;21110;-81
2021/03/03 01:58:39;;;;;;;54.77;28.63;;;;;;;-3.93;87.82;94332.24;1821869;78;21203;-84
2021/03/03 02:01:08;;;;;;;59.93;30.47;;;;;;;-3.98;87.52;94329.11;1810792;76;21159;-79
2021/03/03 02:03:39;;;;;;;53.93;30.80;;;;;;;-4.02;87.25;94330.75;1830216;77;21358;-81
2021/03/03 02:06:25;;;;;;;57.90;29.73;;;;;;;-4.07;87.45;94330.77;1831723;77;21223;-81
2021/03/03 02:09:05;;;;;;;44.83;22.53;;;;;;;-4.12;87.20;94330.05;1810678;78;21164;-81
2021/03/03 02:11:38;;;;;;;53.93;27.33;;;;;;;-4.23;87.47;94329.34;1810280;78;21195;-80
2021/03/03 02:14:07;;;;;;;48.77;27.77;;;;;;;-4.27;87.81;94330.45;1811305;78;21479;-79
2021/03/03 02:16:36;;;;;;;52.60;25.53;;;;;;;-4.31;87.71;94340.05;1865905;76;21592;-81
2021/03/03 02:19:04;;;;;;;60.50;31.57;;;;;;;-4.32;87.73;94339.80;1826329;76;21618;-83
2021/03/03 02:21:37;;;;;;;66.30;34.57;;;;;;;-4.39;87.43;94330.03;1827583;77;21115;-79
2021/03/03 02:24:16;;;;;;;64.37;34.00;;;;;;;-4.42;87.52;94338.55;1845022;77;21167;-79
2021/03/03 02:26:44;;;;;;;68.80;35.47;;;;;;;-4.45;87.52;94321.30;1817842;77;21215;-82
2021/03/03 02:29:15;;;;;;;66.87;35.63;;;;;;;-4.44;87.31;94331.37;1817978;77;22085;-79
2021/03/03 02:31:45;;;;;;;71.67;37.73;;;;;;;-4.47;87.23;94339.92;1811691;77;21355;-80
2021/03/03 02:34:15;;;;;;;56.90;30.93;;;;;;;-4.50;87.17;94330.64;1810398;79;21091;-82
2021/03/03 02:36:43;;;;;;;57.20;28.90;;;;;;;-4.51;87.33;94328.28;1842083;76;21748;-83
2021/03/03 02:39:10;;;;;;;61.07;30.33;;;;;;;-4.54;87.49;94326.97;1806252;78;21204;-83
2021/03/03 02:41:38;;;;;;;60.03;30.43;;;;;;;-4.57;87.43;94324.86;1815643;79;21366;-85
2021/03/03 02:44:06;;;;;;;66.67;35.60;;;;;;;-4.58;87.28;94329.92;1790255;78;21465;-80
2021/03/03 02:46:34;;;;;;;75.33;34.50;;;;;;;-4.64;87.24;94319.86;1815403;79;21174;-78
2021/03/03 02:49:03;;;;;;;68.87;34.13;;;;;;;-4.65;87.15;94327.58;1814952;79;21149;-81
2021/03/03 02:51:31;;;;;;;56.97;29.50;;;;;;;-4.68;87.16;94331.32;1808286;78;21921;-81
2021/03/03 02:53:58;;;;;;;59.83;30.40;;;;;;;-4.69;87.24;94330.53;1795397;79;21430;-82
2021/03/03 02:56:28;;;;;;;52.60;26.50;;;;;;;-4.70;87.27;94328.95;1795819;79;21185;-84
2021/03/03 02:58:58;;;;;;;57.73;29.50;;;;;;;-4.73;87.27;94328.72;1777691;79;21177;-78
2021/03/03 03:01:26;;;;;;;53.73;28.10;;;;;;;-4.79;87.33;94327.95;1786157;78;21117;-82
2021/03/03 03:04:12;;;;;;;52.93;28.03;;;;;;;-4.83;87.59;94329.57;1798962;78;21225;-80
2021/03/03 03:06:59;;;;;;;52.40;30.73;;;;;;;-4.84;87.72;94325.88;1776465;78;21160;-78
2021/03/03 03:09:45;;;;;;;52.27;26.87;;;;;;;-4.87;87.62;94332.52;1815402;77;21489;-79
2021/03/03 03:12:30;;;;;;;53.63;27.63;;;;;;;-4.92;87.56;94338.66;1831312;77;21208;-80
2021/03/03 03:15:18;;;;;;;51.37;27.23;;;;;;;-4.93;87.74;94336.27;1770175;79;21173;-81
2021/03/03 03:17:49;;;;;;;62.10;31.43;;;;;;;-4.97;87.86;94333.37;1816946;77;21605;-80
2021/03/03 03:20:17;;;;;;;62.63;29.20;;;;;;;-4.92;88.12;94341.84;1856033;77;21349;-78
2021/03/03 03:22:45;;;;;;;58.20;29.00;;;;;;;-4.87;88.01;94341.02;1825271;77;21167;-78
2021/03/03 03:25:14;;;;;;;57.80;29.07;;;;;;;-4.86;88.04;94342.05;1821118;78;21610;-80
2021/03/03 03:27:43;;;;;;;54.00;28.13;;;;;;;-4.78;87.97;94334.04;1834633;74;21182;-79
2021/03/03 03:30:12;;;;;;;65.17;31.97;;;;;;;-4.78;87.80;94336.16;1847444;77;21167;-79
2021/03/03 03:32:41;;;;;;;63.33;31.73;;;;;;;-4.76;87.60;94335.36;1809786;79;21468;-83
2021/03/03 03:35:10;;;;;;;65.60;33.67;;;;;;;-4.75;87.64;94336.14;1778951;79;21649;-80
2021/03/03 03:37:38;;;;;;;65.30;32.83;;;;;;;-4.75;87.35;94333.49;1778469;79;21481;-78
2021/03/03 03:40:13;;;;;;;60.37;31.90;;;;;;;-4.74;87.40;94338.54;1777058;80;21651;-80
2021/03/03 03:42:43;;;;;;;57.27;30.53;;;;;;;-4.74;87.18;94337.72;1778001;79;21110;-81
2021/03/03 03:45:13;;;;;;;59.83;31.20;;;;;;;-4.79;86.75;94335.12;1789951;74;21573;-76
2021/03/03 03:47:41;;;;;;;61.33;30.77;;;;;;;-4.89;86.73;94340.77;1862203;76;21175;-78
2021/03/03 03:50:10;;;;;;;55.77;28.63;;;;;;;-4.98;86.72;94332.33;1805861;77;21156;-80
2021/03/03 03:52:37;;;;;;;68.67;33.23;;;;;;;-5.07;86.80;94337.43;1757232;80;21194;-79
2021/03/03 03:55:07;;;;;;;71.20;34.13;;;;;;;-5.09;87.03;94327.61;1749993;81;21122;-79
2021/03/03 03:57:51;;;;;;;67.07;35.43;;;;;;;-5.10;86.58;94335.32;1777021;80;21378;-77
2021/03/03 04:00:20;;;;;;;65.97;30.67;;;;;;;-5.15;86.56;94326.08;1772986;80;21212;-82
2021/03/03 04:02:48;;;;;;;62.00;29.53;;;;;;;-5.18;86.43;94327.95;1812040;78;21139;-78
2021/03/03 04:05:17;;;;;;;62.80;31.80;;;;;;;-5.23;86.67;94331.42;1816726;77;21270;-82
2021/03/03 04:07:45;;;;;;;66.93;30.23;;;;;;;-5.23;86.79;94330.61;1795836;77;21173;-83
2021/03/03 04:10:16;;;;;;;72.10;32.33;;;;;;;-5.26;86.89;94331.19;1794980;78;21803;-80
2021/03/03 04:12:43;;;;;;;61.63;30.93;;;;;;;-5.29;87.09;94329.86;1802230;79;21173;-78
2021/03/03 04:15:12;;;;;;;66.10;31.17;;;;;;;-5.28;87.33;94321.37;1774601;80;21188;-82
2021/03/03 04:17:41;;;;;;;58.10;31.07;;;;;;;-5.27;87.02;94318.43;1693059;83;21127;-82
2021/03/03 04:20:11;;;;;;;57.23;29.63;;;;;;;-5.26;86.74;94313.95;1803479;79;21128;-82
2021/03/03 04:22:39;;;;;;;63.00;30.70;;;;;;;-5.26;86.67;94314.73;1820724;77;21324;-83
2021/03/03 04:25:09;;;;;;;69.47;33.43;;;;;;;-5.22;86.61;94320.28;1824811;78;21065;-81
2021/03/03 04:27:38;;;;;;;54.93;30.53;;;;;;;-5.21;86.49;94323.98;1797213;79;21158;-80
2021/03/03 04:30:09;;;;;;;60.80;32.20;;;;;;;-5.22;86.60;94322.94;1790100;78;21636;-78
2021/03/03 04:32:36;;;;;;;63.10;30.13;;;;;;;-5.21;86.65;94324.52;1877477;76;21160;-80
2021/03/03 04:35:06;;;;;;;68.27;35.40;;;;;;;-5.25;86.51;94322.16;1820325;76;21187;-80
2021/03/03 04:37:34;;;;;;;62.10;30.73;;;;;;;-5.29;86.57;94315.81;1807291;79;21622;-83
2021/03/03 04:40:02;;;;;;;57.70;31.07;;;;;;;-5.28;86.49;94316.06;1799911;79;21547;-82
2021/03/03 04:42:29;;;;;;;61.83;30.80;;;;;;;-5.29;86.64;94313.16;1816522;78;21751;-80
2021/03/03 04:44:57;;;;;;;57.77;30.03;;;;;;;-5.29;86.83;94303.88;1785246;80;21181;-81
2021/03/03 04:47:25;;;;;;;49.17;24.20;;;;;;;-5.28;86.74;94307.58;1856980;77;21359;-78
2021/03/03 04:49:53;;;;;;;55.63;29.37;;;;;;;-5.29;86.72;94316.60;1806394;77;21135;-80
2021/03/03 04:52:21;;;;;;;49.83;28.37;;;;;;;-5.31;86.82;94317.40;1820532;77;21145;-80
2021/03/03 04:54:50;;;;;;;51.70;26.63;;;;;;;-5.32;86.85;94326.42;1793478;79;21096;-82
2021/03/03 04:57:18;;;;;;;61.57;30.40;;;;;;;-5.34;86.94;94327.25;1786660;77;21155;-81
2021/03/03 04:59:45;;;;;;;50.80;26.93;;;;;;;-5.36;86.94;94326.71;1862933;77;21372;-78
2021/03/03 05:02:13;;;;;;;42.97;22.57;;;;;;;-5.34;87.35;94322.45;1800141;77;21174;-81
2021/03/03 05:04:41;;;;;;;59.37;31.83;;;;;;;-5.32;87.46;94322.45;1780664;80;21207;-81
2021/03/03 05:07:09;;;;;;;48.80;25.17;;;;;;;-5.35;87.35;94324.85;1777703;80;21156;-79
2021/03/03 05:09:37;;;;;;;56.27;31.30;;;;;;;-5.35;87.21;94326.17;1786029;78;21567;-83
2021/03/03 05:12:05;;;;;;;50.27;24.83;;;;;;;-5.36;87.18;94324.06;1831294;78;21374;-82
2021/03/03 05:14:34;;;;;;;43.33;20.90;;;;;;;-5.33;87.23;94324.84;1843262;77;21706;-80
2021/03/03 05:17:02;;;;;;;50.20;26.47;;;;;;;-5.33;87.33;94328.83;1829794;77;21515;-81
2021/03/03 05:19:30;;;;;;;40.17;21.70;;;;;;;-5.29;87.69;94323.77;1821310;78;21656;-77
2021/03/03 05:21:58;;;;;;;39.17;20.93;;;;;;;-5.28;87.44;94335.95;1822217;78;21096;-80
2021/03/03 05:24:25;;;;;;;42.87;25.63;;;;;;;-5.24;87.69;94333.01;1821064;78;21370;-80
2021/03/03 05:26:54;;;;;;;55.70;31.83;;;;;;;-5.18;87.68;94330.60;1822515;78;21064;-81
2021/03/03 05:29:21;;;;;;;39.63;23.23;;;;;;;-5.13;87.28;94331.34;1821517;78;21215;-80
2021/03/03 05:31:50;;;;;;;27.53;14.27;;;;;;;-5.09;87.23;94332.92;1821830;78;21139;-80
2021/03/03 05:34:18;;;;;;;24.60;14.07;;;;;;;-5.03;87.17;94328.39;1806089;78;21189;-80
2021/03/03 05:36:46;;;;;;;13.50;6.93;;;;;;;-5.06;87.14;94328.94;1781362;77;22270;-80
2021/03/03 05:39:13;;;;;;;29.23;15.77;;;;;;;-5.04;87.67;94328.11;1811547;79;21074;-81
2021/03/03 05:41:41;;;;;;;41.17;22.67;;;;;;;-4.96;87.86;94332.86;1780377;79;21141;-79
2021/03/03 05:44:09;;;;;;;47.90;26.23;;;;;;;-4.92;87.45;94329.38;1798015;79;21204;-78
2021/03/03 05:46:38;;;;;;;43.50;23.20;;;;;;;-4.80;87.77;94325.05;1779070;80;21334;-81
2021/03/03 05:49:06;;;;;;;40.87;22.87;;;;;;;-4.44;88.32;94326.07;1777676;80;21450;-79
2021/03/03 05:51:35;;;;;;;33.40;17.90;;;;;;;-3.96;88.50;94325.61;1750953;80;21471;-78
2021/03/03 05:54:05;;;;;;;27.70;18.33;;;;;;;-3.27;89.17;94324.02;1777607;80;21639;-83
2021/03/03 05:56:32;;;;;;;42.03;20.63;;;;;;;-2.42;88.04;94332.38;1777784;80;21137;-81
2021/03/03 05:59:00;;;;;;;28.83;16.90;;;;;;;-1.64;85.51;94322.75;1798173;79;21184;-81
2021/03/03 06:01:29;;;;;;;31.43;18.30;;;;;;;-1.10;82.77;94317.11;1778254;80;22255;-77
2021/03/03 06:03:59;;;;;;;38.67;23.47;;;;;;;-0.58;81.38;94322.13;1781412;78;21681;-82
2021/03/03 06:06:26;;;;;;;39.40;23.95;;;;;;;-0.10;78.10;94322.30;1819847;78;21117;-79
2021/03/03 06:08:54;;;;;;;37.53;20.95;;;;;;;0.20;75.29;94325.30;1810171;78;21180;-82
2021/03/03 06:11:21;;;;;;;31.50;18.75;;;;;;;0.36;74.53;94329.14;1810165;79;21152;-80
2021/03/03 06:13:49;;;;;;;31.70;22.13;;;;;;;0.48;73.98;94321.31;1809592;79;21606;-79
2021/03/03 06:16:17;;;;;;;37.10;23.95;;;;;;;0.65;73.09;94315.25;1810405;79;21207;-81
2021/03/03 06:18:44;;;;;;;37.45;23.25;;;;;;;0.72;71.98;94318.27;1810321;79;21152;-79
2021/03/03 06:21:30;;;;;;;33.45;19.15;;;;;;;0.70;71.79;94317.77;1810842;79;21188;-79
2021/03/03 06:24:07;;;;;;;30.15;19.35;;;;;;;0.68;71.59;94318.65;1845951;77;21128;-81
2021/03/03 06:26:35;;;;;;;30.37;18.37;;;;;;;0.64;71.23;94316.35;1819658;77;21429;-81
2021/03/03 06:29:13;;;;;;;28.07;17.62;;;;;;;0.52;71.54;94317.47;1810295;79;21733;-81
2021/03/03 06:31:41;;;;;;;26.40;17.48;;;;;;;0.38;72.32;94317.59;1810388;79;21183;-79
2021/03/03 06:34:18;;;;;;;29.25;18.10;;;;;;;0.27;72.37;94319.52;1816317;77;21265;-79
2021/03/03 06:36:48;;;;;;;29.57;17.95;;;;;;;0.05;72.73;94317.12;1848385;77;21614;-79
2021/03/03 06:39:22;;;;;;;29.57;17.17;;;;;;;-0.19;73.56;94324.67;1778423;80;21185;-80
2021/03/03 06:41:52;;;;;;;30.20;18.25;;;;;;;-0.33;74.36;94320.20;1776764;80;21213;-82
2021/03/03 06:44:21;;;;;;;36.17;21.37;;;;;;;-0.26;74.89;94321.90;1822925;78;21189;-80
2021/03/03 06:47:06;;;;;;;37.30;22.90;;;;;;;-0.21;74.78;94317.52;1821716;78;21180;-79
2021/03/03 06:49:35;;;;;;;39.73;24.05;;;;;;;-0.21;74.35;94315.63;1793552;78;21167;-79
2021/03/03 06:52:03;;;;;;;43.85;25.35;;;;;;;-0.31;74.62;94312.64;1833660;78;21192;-79
2021/03/03 06:54:31;;;;;;;36.73;21.68;;;;;;;-0.40;74.78;94310.48;1809218;79;21168;-79
2021/03/03 06:56:59;;;;;;;35.30;21.70;;;;;;;-0.50;75.33;94310.16;1809248;79;21176;-82
2021/03/03 06:59:32;;;;;;;38.78;22.13;;;;;;;-0.58;75.76;94313.56;1809401;79;22049;-84
2021/03/03 07:02:09;;;;;;;35.20;20.37;;;;;;;-0.67;76.01;94306.59;1825014;77;21651;-77
2021/03/03 07:04:42;;;;;;;35.13;19.60;;;;;;;-0.69;76.63;94306.09;1836517;77;21567;-79
2021/03/03 07:07:13;;;;;;;29.57;19.50;;;;;;;-0.63;77.27;94308.90;1810771;77;21783;-78
2021/03/03 07:09:46;;;;;;;31.05;17.98;;;;;;;-0.46;77.08;94302.33;1845550;77;21132;-79
2021/03/03 07:12:19;;;;;;;36.28;23.00;;;;;;;-0.19;76.79;94304.06;1811106;77;21301;-81
2021/03/03 07:15:03;;;;;;;34.38;20.85;;;;;;;0.08;75.91;94303.14;1836356;77;21116;-79
2021/03/03 07:17:44;;;;;;;32.67;23.17;;;;;;;0.32;75.31;94299.30;1871074;75;27807;-77
2021/03/03 07:20:16;;;;;;;33.80;22.45;;;;;;;0.44;74.98;94304.30;1826788;77;22004;-76
2021/03/03 07:22:50;;;;;;;26.12;17.50;;;;;;;0.63;75.07;94305.39;1819002;78;21864;-77
2021/03/03 07:25:20;;;;;;;27.15;16.90;;;;;;;0.90;74.34;94298.20;1821999;78;21183;-77
2021/03/03 07:27:48;;;;;;;27.07;18.37;;;;;;;1.13;73.50;94296.19;1809721;78;21175;-76
2021/03/03 07:30:22;;;;;;;36.28;20.70;;;;;;;1.23;73.39;94299.91;1694879;83;21610;-79
2021/03/03 07:32:50;;;;;;;30.55;20.12;;;;;;;1.47;73.70;94296.77;1754515;81;21674;-80
2021/03/03 07:35:20;;;;;;;30.88;20.50;;;;;;;1.79;73.53;94297.37;1750965;79;21665;-79
2021/03/03 07:37:51;;;;;;;28.85;18.20;;;;;;;2.02;72.80;94300.08;1822901;77;21210;-80
2021/03/03 07:40:19;;;;;;;32.88;18.62;;;;;;;2.06;72.03;94297.55;1838331;77;21175;-79
2021/03/03 07:43:01;;;;;;;43.65;23.18;;;;;;;2.11;71.74;94294.70;1755512;80;21076;-79
2021/03/03 07:45:40;;;;;;;32.78;19.62;;;;;;;2.13;71.95;94286.55;1787706;80;21701;-79
2021/03/03 07:48:11;;;;;;;36.93;22.40;;;;;;;2.15;72.18;94289.72;1770775;81;22252;-78
2021/03/03 07:50:40;;;;;;;34.90;21.50;;;;;;;2.19;72.52;94290.66;1758801;81;21243;-80
2021/03/03 07:53:09;;;;;;;29.35;18.85;;;;;;;2.32;72.90;94283.49;1778043;80;21527;-80
2021/03/03 07:55:37;;;;;;;28.27;17.85;;;;;;;2.52;72.46;94286.56;1791006;79;21500;-80
2021/03/03 07:58:07;;;;;;;27.82;18.32;;;;;;;2.64;71.50;94287.47;1785114;79;21120;-78
2021/03/03 08:00:37;;;;;;;25.45;16.10;;;;;;;2.79;71.85;94287.48;1794203;79;21374;-79
2021/03/03 08:03:05;;;;;;;28.50;18.07;;;;;;;3.09;70.49;94270.00;1779260;80;21197;-80
2021/03/03 08:05:39;;;;;;;26.68;17.05;;;;;;;3.41;68.44;94268.48;1790098;79;21172;-80
2021/03/03 08:08:24;;;;;;;26.93;17.80;;;;;;;3.70;68.27;94268.95;1784458;79;21190;-80
2021/03/03 08:11:05;;;;;;;24.12;15.05;;;;;;;4.18;67.00;94269.44;1789025;79;21622;-80
2021/03/03 08:13:34;;;;;;;29.05;18.50;;;;;;;4.79;66.92;94269.48;1787912;79;21345;-81
2021/03/03 08:16:05;;;;;;;33.15;20.37;;;;;;;5.35;63.84;94271.77;1785208;79;21756;-80
2021/03/03 08:18:51;;;;;;;29.57;19.77;;;;;;;5.74;62.78;94272.66;1802914;79;21175;-80
2021/03/03 08:21:25;;;;;;;28.30;18.60;;;;;;;5.99;61.06;94267.41;1779961;80;21440;-80
2021/03/03 08:23:59;;;;;;;33.55;22.98;;;;;;;6.31;61.01;94268.80;1803206;79;21653;-80
2021/03/03 08:26:34;;;;;;;;;;;;;;;6.63;60.34;94269.62;1786789;79;21208;-81
2021/03/03 08:29:20;;;;;;;30.30;20.60;;;;;;;6.86;59.30;94260.31;1769899;80;20283;-80
2021/03/03 08:31:49;;;;;;;31.40;19.60;;;;;;;7.08;58.85;94258.89;1772285;79;21182;-80
2021/03/03 08:34:18;;;;;;;33.35;21.57;;;;;;;7.28;57.00;94263.77;1772709;78;21162;-80
2021/03/03 08:36:49;;;;;;;29.32;19.50;;;;;;;7.34;56.99;94251.55;1796459;79;21151;-81
2021/03/03 08:39:22;;;;;;;29.72;19.75;;;;;;;7.41;56.89;94251.70;1775578;80;21359;-81
2021/03/03 08:41:50;;;;;;;29.60;21.45;;;;;;;7.60;57.25;94253.64;1776419;80;21152;-80
2021/03/03 08:44:18;;;;;;;26.15;18.40;;;;;;;7.91;56.50;94257.34;1749940;81;21196;-81
2021/03/03 08:46:49;;;;;;;28.02;19.10;;;;;;;8.22;55.79;94252.30;1770570;80;21234;-81
2021/03/03 08:49:27;;;;;;;30.52;17.73;;;;;;;8.61;53.85;94255.71;1773599;80;21155;-82
2021/03/03 08:52:09;;;;;;;28.85;19.50;;;;;;;8.94;53.33;94252.95;1780361;80;21333;-82
2021/03/03 08:54:39;;;;;;;29.77;19.25;;;;;;;9.25;53.62;94245.08;1781813;80;21207;-82
2021/03/03 08:57:28;;;;;;;28.95;19.32;;;;;;;9.54;52.40;94240.05;1741646;82;21651;-82
2021/03/03 08:59:56;;;;;;;23.98;16.17;;;;;;;9.82;50.56;94247.78;1704623;82;21676;-81
2021/03/03 09:02:26;;;;;;;21.33;14.95;;;;;;;9.98;50.16;94242.92;1756261;80;21211;-82
2021/03/03 09:04:54;;;;;;;22.80;15.15;;;;;;;10.17;48.92;94237.89;1749080;81;22126;-82
2021/03/03 09:07:25;;;;;;;21.02;15.00;;;;;;;10.36;47.60;94228.20;1770382;80;21174;-81
2021/03/03 09:10:15;;;;;;;17.52;13.18;;;;;;;10.57;47.62;94237.16;1782132;78;21170;-82
2021/03/03 09:12:44;;;;;;;17.65;13.40;;;;;;;10.80;47.03;94225.30;1814137;78;21183;-82
2021/03/03 09:15:15;;;;;;;20.12;11.80;;;;;;;10.98;45.77;94225.42;1761890;79;21230;-82
2021/03/03 09:17:44;;;;;;;13.80;10.63;;;;;;;11.18;45.46;94216.63;1778600;80;22210;-80
2021/03/03 09:20:17;;;;;;;12.88;9.68;;;;;;;11.43;43.05;94223.59;1749618;80;21203;-81
2021/03/03 09:22:46;;;;;;;13.03;9.43;;;;;;;11.57;41.06;94217.42;1735724;78;21168;-81
2021/03/03 09:25:20;;;;;;;12.70;8.90;;;;;;;11.58;41.44;94213.53;1797089;79;21258;-81
2021/03/03 09:27:52;;;;;;;13.53;9.33;;;;;;;11.70;39.43;94213.00;1779019;80;21712;-81
2021/03/03 09:30:23;;;;;;;15.32;10.30;;;;;;;11.83;40.24;94208.79;1790993;79;21664;-81
2021/03/03 09:32:51;;;;;;;14.90;10.13;;;;;;;12.17;40.53;94210.68;1835161;77;21202;-82
2021/03/03 09:35:29;;;;;;;14.50;10.78;;;;;;;12.44;40.21;94213.07;1825037;78;21196;-81
2021/03/03 09:37:57;;;;;;;14.05;10.85;;;;;;;12.68;40.81;94214.28;1813043;78;21119;-82
2021/03/03 09:40:33;;;;;;;16.35;11.80;;;;;;;12.88;38.75;94206.67;1816466;78;21178;-82
2021/03/03 09:43:01;;;;;;;15.35;12.60;;;;;;;12.80;39.15;94206.48;1837033;77;21344;-82
2021/03/03 09:45:30;;;;;;;17.80;12.50;;;;;;;12.69;39.46;94204.34;1802966;78;21173;-81
2021/03/03 09:47:59;;;;;;;18.82;11.38;;;;;;;12.64;40.10;94196.55;1803481;77;21106;-81
2021/03/03 09:50:34;;;;;;;14.63;11.35;;;;;;;12.55;39.22;94198.86;1787374;79;21645;-81
2021/03/03 09:53:03;;;;;;;17.65;11.05;;;;;;;12.39;37.87;94194.56;1813807;77;21204;-81
2021/03/03 09:55:34;;;;;;;16.87;11.55;;;;;;;12.24;38.21;94193.56;1816694;77;22285;-84
2021/03/03 09:58:04;;;;;;;16.12;11.97;;;;;;;12.21;38.47;94198.42;1818042;77;21198;-83
2021/03/03 10:00:38;;;;;;;13.85;10.45;;;;;;;12.20;39.21;94193.55;1776301;79;21190;-84
2021/03/03 10:03:13;;;;;;;16.77;10.13;;;;;;;12.16;37.02;94187.31;1793055;79;21158;-84
2021/03/03 10:05:41;;;;;;;13.95;9.78;;;;;;;11.98;36.24;94194.66;1782629;79;21159;-83
2021/03/03 10:08:10;;;;;;;15.35;10.78;;;;;;;11.70;36.01;94193.37;1765178;80;21375;-83
2021/03/03 10:10:44;;;;;;;25.17;10.85;;;;;;;11.43;35.18;94191.48;1823170;77;21238;-83
2021/03/03 10:13:24;;;;;;;11.60;9.33;;;;;;;11.22;37.50;94188.66;1808392;78;21125;-83
2021/03/03 10:15:55;;;;;;;15.95;10.38;;;;;;;11.11;36.91;94182.56;1785951;79;21185;-84
2021/03/03 10:18:23;;;;;;;12.53;8.70;;;;;;;11.02;38.02;94181.32;1853698;77;21130;-84
2021/03/03 10:20:55;;;;;;;14.98;10.32;;;;;;;10.98;39.30;94179.16;1828532;77;22222;-84
2021/03/03 10:23:28;;;;;;;15.00;9.63;;;;;;;10.89;39.77;94173.47;1835945;77;21676;-84
2021/03/03 10:26:06;;;;;;;10.90;8.13;;;;;;;10.77;40.23;94173.00;1832290;77;21160;-84
2021/03/03 10:28:36;;;;;;;17.85;9.20;;;;;;;10.68;40.31;94166.51;1786850;80;21361;-83
2021/03/03 10:31:07;;;;;;;11.30;8.20;;;;;;;10.58;40.45;94166.64;1818081;78;21186;-84
2021/03/03 10:33:38;;;;;;;11.22;7.30;;;;;;;10.53;41.07;94164.28;1838436;77;21544;-84
2021/03/03 10:36:15;;;;;;;11.63;7.87;;;;;;;10.47;40.79;94163.06;1840398;78;21179;-83
2021/03/03 10:38:54;;;;;;;10.43;7.45;;;;;;;10.39;41.35;94160.86;1795716;78;21189;-83
2021/03/03 10:41:28;;;;;;;11.88;7.20;;;;;;;10.38;40.74;94157.95;1867845;76;21139;-82
2021/03/03 10:43:58;;;;;;;10.25;7.03;;;;;;;10.38;40.50;94155.78;1831901;77;26768;-84
2021/03/03 10:46:26;;;;;;;13.78;9.23;;;;;;;10.42;39.86;94149.23;1747547;79;21299;-84
2021/03/03 10:48:56;;;;;;;10.55;8.05;;;;;;;10.43;40.40;94145.94;1841308;77;21638;-84
2021/03/03 10:51:36;;;;;;;9.50;7.40;;;;;;;10.41;40.74;94146.30;1805584;79;21180;-84
2021/03/03 10:54:05;;;;;;;9.80;7.35;;;;;;;10.41;40.21;94136.78;1808739;78;21167;-83
2021/03/03 10:56:37;;;;;;;9.50;6.58;;;;;;;10.40;39.35;94133.86;1819309;78;21178;-84
2021/03/03 10:59:12;;;;;;;10.82;6.80;;;;;;;10.41;39.22;94130.56;1819169;78;21434;-84
2021/03/03 11:01:49;;;;;;;10.70;7.78;;;;;;;10.41;38.09;94121.83;1799589;79;21177;-85
2021/03/03 11:04:17;;;;;;;12.18;7.50;;;;;;;10.49;38.79;94124.02;1797317;79;21650;-84
2021/03/03 11:06:45;;;;;;;11.48;7.83;;;;;;;10.50;39.87;94123.47;1774496;80;21186;-84
2021/03/03 11:09:16;;;;;;;11.60;7.60;;;;;;;10.47;39.93;94116.84;1791348;78;21227;-85
2021/03/03 11:11:49;;;;;;;11.08;7.78;;;;;;;10.42;40.49;94111.76;1785541;79;22673;-84
2021/03/03 11:14:17;;;;;;;12.58;8.03;;;;;;;10.43;40.98;94111.95;1829851;77;21139;-85
2021/03/03 11:16:51;;;;;;;12.23;7.47;;;;;;;10.50;39.71;94104.44;1818110;78;21186;-85
2021/03/03 11:19:20;;;;;;;10.03;7.28;;;;;;;10.51;39.40;94101.33;1792053;78;21648;-83
2021/03/03 11:21:48;;;;;;;9.70;6.80;;;;;;;10.54;38.43;94093.00;1801607;79;21176;-85
2021/03/03 11:24:16;;;;;;;9.80;7.53;;;;;;;10.60;38.76;94089.52;1801437;78;21606;-84
2021/03/03 11:26:44;;;;;;;9.73;6.62;;;;;;;10.66;37.88;94089.97;1807410;79;21214;-84
2021/03/03 11:29:12;;;;;;;12.23;7.47;;;;;;;10.69;38.06;94084.55;1838558;77;21191;-82
2021/03/03 11:31:43;;;;;;;10.43;7.28;;;;;;;10.78;38.31;94079.34;1807953;78;21155;-82
2021/03/03 11:34:11;;;;;;;11.28;7.20;;;;;;;10.85;39.06;94074.73;1840143;77;21155;-81
2021/03/03 11:36:39;;;;;;;10.23;6.40;;;;;;;10.89;37.39;94075.52;1809855;77;21188;-81